sensor_id;sensor_type;location;lat;lon;timestamp;P1;durP1;ratioP1;P2;durP2;ratioP2
1545;SDS011;766;51.502;9.752;2022-10-04T00:00:11;9.65;;;2.80;;
1545;SDS011;766;51.502;9.752;2022-10-04T00:02:55;6.57;;;2.53;;
1545;SDS011;766;51.502;9.752;2022-10-04T00:05:37;9.70;;;3.05;;
1545;SDS011;766;51.502;9.752;2022-10-04T00:08:17;8.40;;;2.83;;
1545;SDS011;766;51.502;9.752;2022-10-04T00:10:59;10.02;;;2.95;;
1545;SDS011;766;51.502;9.752;2022-10-04T00:13:30;6.40;;;3.00;;
1545;SDS011;766;51.502;9.752;2022-10-04T00:16:03;11.48;;;2.95;;
1545;SDS011;766;51.502;9.752;2022-10-04T00:18:36;11.63;;;3.13;;
1545;SDS011;766;51.502;9.752;2022-10-04T00:21:10;9.25;;;3.28;;
1545;SDS011;766;51.502;9.752;2022-10-04T00:23:40;11.93;;;3.53;;
1545;SDS011;766;51.502;9.752;2022-10-04T00:29:22;9.07;;;3.70;;
1545;SDS011;766;51.502;9.752;2022-10-04T00:34:55;9.57;;;2.78;;
1545;SDS011;766;51.502;9.752;2022-10-04T00:37:24;8.18;;;3.30;;
1545;SDS011;766;51.502;9.752;2022-10-04T00:40:02;8.07;;;2.83;;
1545;SDS011;766;51.502;9.752;2022-10-04T00:42:42;7.82;;;3.20;;
1545;SDS011;766;51.502;9.752;2022-10-04T00:45:19;16.30;;;3.60;;
1545;SDS011;766;51.502;9.752;2022-10-04T00:48:00;10.02;;;3.50;;
1545;SDS011;766;51.502;9.752;2022-10-04T00:51:01;9.27;;;3.42;;
1545;SDS011;766;51.502;9.752;2022-10-04T00:56:33;10.52;;;3.30;;
1545;SDS011;766;51.502;9.752;2022-10-04T00:59:09;8.45;;;3.40;;
1545;SDS011;766;51.502;9.752;2022-10-04T01:01:45;10.80;;;2.85;;
1545;SDS011;766;51.502;9.752;2022-10-04T01:04:27;8.63;;;2.83;;
1545;SDS011;766;51.502;9.752;2022-10-04T01:07:02;8.25;;;3.15;;
1545;SDS011;766;51.502;9.752;2022-10-04T01:09:33;5.05;;;3.13;;
1545;SDS011;766;51.502;9.752;2022-10-04T01:12:12;6.53;;;2.70;;
1545;SDS011;766;51.502;9.752;2022-10-04T01:14:51;7.72;;;2.85;;
1545;SDS011;766;51.502;9.752;2022-10-04T01:17:26;7.20;;;3.13;;
1545;SDS011;766;51.502;9.752;2022-10-04T01:19:56;6.35;;;2.58;;
1545;SDS011;766;51.502;9.752;2022-10-04T01:22:35;7.30;;;3.38;;
1545;SDS011;766;51.502;9.752;2022-10-04T01:25:07;9.48;;;3.78;;
1545;SDS011;766;51.502;9.752;2022-10-04T01:28:00;10.75;;;3.33;;
1545;SDS011;766;51.502;9.752;2022-10-04T01:30:29;5.57;;;3.53;;
1545;SDS011;766;51.502;9.752;2022-10-04T01:32:59;11.98;;;3.78;;
1545;SDS011;766;51.502;9.752;2022-10-04T01:35:28;8.70;;;3.67;;
1545;SDS011;766;51.502;9.752;2022-10-04T01:37:57;10.07;;;3.63;;
1545;SDS011;766;51.502;9.752;2022-10-04T01:40:26;9.95;;;4.30;;
1545;SDS011;766;51.502;9.752;2022-10-04T01:42:58;8.25;;;3.50;;
1545;SDS011;766;51.502;9.752;2022-10-04T01:45:33;9.27;;;3.40;;
1545;SDS011;766;51.502;9.752;2022-10-04T01:48:08;7.95;;;3.17;;
1545;SDS011;766;51.502;9.752;2022-10-04T01:50:40;8.13;;;3.47;;
1545;SDS011;766;51.502;9.752;2022-10-04T01:53:14;8.35;;;3.58;;
1545;SDS011;766;51.502;9.752;2022-10-04T01:55:54;9.73;;;3.63;;
1545;SDS011;766;51.502;9.752;2022-10-04T01:58:34;9.05;;;4.05;;
1545;SDS011;766;51.502;9.752;2022-10-04T02:01:10;8.60;;;4.20;;
1545;SDS011;766;51.502;9.752;2022-10-04T02:03:42;10.07;;;4.60;;
1545;SDS011;766;51.502;9.752;2022-10-04T02:06:18;8.55;;;3.60;;
1545;SDS011;766;51.502;9.752;2022-10-04T02:08:48;10.20;;;4.47;;
1545;SDS011;766;51.502;9.752;2022-10-04T02:11:23;12.15;;;4.18;;
1545;SDS011;766;51.502;9.752;2022-10-04T02:14:00;12.55;;;4.53;;
1545;SDS011;766;51.502;9.752;2022-10-04T02:16:28;10.25;;;4.70;;
1545;SDS011;766;51.502;9.752;2022-10-04T02:18:58;9.60;;;3.83;;
1545;SDS011;766;51.502;9.752;2022-10-04T02:21:29;11.25;;;4.47;;
1545;SDS011;766;51.502;9.752;2022-10-04T02:24:01;11.93;;;4.00;;
1545;SDS011;766;51.502;9.752;2022-10-04T02:26:34;6.82;;;4.55;;
1545;SDS011;766;51.502;9.752;2022-10-04T02:29:04;9.43;;;5.50;;
1545;SDS011;766;51.502;9.752;2022-10-04T02:31:33;10.80;;;5.40;;
1545;SDS011;766;51.502;9.752;2022-10-04T02:34:21;13.20;;;4.53;;
1545;SDS011;766;51.502;9.752;2022-10-04T02:36:50;10.52;;;4.63;;
1545;SDS011;766;51.502;9.752;2022-10-04T02:39:22;10.45;;;4.25;;
1545;SDS011;766;51.502;9.752;2022-10-04T02:41:56;15.05;;;6.03;;
1545;SDS011;766;51.502;9.752;2022-10-04T02:44:31;10.82;;;5.05;;
1545;SDS011;766;51.502;9.752;2022-10-04T02:47:11;10.98;;;4.55;;
1545;SDS011;766;51.502;9.752;2022-10-04T02:49:44;11.43;;;5.43;;
1545;SDS011;766;51.502;9.752;2022-10-04T02:52:17;12.77;;;5.20;;
1545;SDS011;766;51.502;9.752;2022-10-04T02:54:50;13.05;;;4.80;;
1545;SDS011;766;51.502;9.752;2022-10-04T02:57:26;10.82;;;5.18;;
1545;SDS011;766;51.502;9.752;2022-10-04T03:00:06;9.07;;;4.90;;
1545;SDS011;766;51.502;9.752;2022-10-04T03:05:37;11.07;;;5.13;;
1545;SDS011;766;51.502;9.752;2022-10-04T03:08:07;10.63;;;4.80;;
1545;SDS011;766;51.502;9.752;2022-10-04T03:10:37;7.22;;;4.07;;
1545;SDS011;766;51.502;9.752;2022-10-04T03:13:08;9.25;;;4.53;;
1545;SDS011;766;51.502;9.752;2022-10-04T03:15:42;12.10;;;4.57;;
1545;SDS011;766;51.502;9.752;2022-10-04T03:18:12;7.55;;;4.20;;
1545;SDS011;766;51.502;9.752;2022-10-04T03:20:42;7.55;;;4.50;;
1545;SDS011;766;51.502;9.752;2022-10-04T03:23:12;9.38;;;4.70;;
1545;SDS011;766;51.502;9.752;2022-10-04T03:25:50;8.75;;;4.47;;
1545;SDS011;766;51.502;9.752;2022-10-04T03:28:22;12.00;;;4.63;;
1545;SDS011;766;51.502;9.752;2022-10-04T03:30:55;7.82;;;4.60;;
1545;SDS011;766;51.502;9.752;2022-10-04T03:33:41;11.10;;;5.53;;
1545;SDS011;766;51.502;9.752;2022-10-04T03:36:13;10.77;;;4.82;;
1545;SDS011;766;51.502;9.752;2022-10-04T03:38:45;9.05;;;5.03;;
1545;SDS011;766;51.502;9.752;2022-10-04T03:41:15;11.20;;;4.88;;
1545;SDS011;766;51.502;9.752;2022-10-04T03:43:44;9.07;;;4.72;;
1545;SDS011;766;51.502;9.752;2022-10-04T03:46:19;13.50;;;4.97;;
1545;SDS011;766;51.502;9.752;2022-10-04T03:48:50;8.45;;;4.55;;
1545;SDS011;766;51.502;9.752;2022-10-04T03:51:22;8.52;;;4.78;;
1545;SDS011;766;51.502;9.752;2022-10-04T03:53:54;12.57;;;4.72;;
1545;SDS011;766;51.502;9.752;2022-10-04T03:56:26;16.10;;;5.93;;
1545;SDS011;766;51.502;9.752;2022-10-04T03:58:57;16.27;;;4.70;;
1545;SDS011;766;51.502;9.752;2022-10-04T04:01:38;8.88;;;4.88;;
1545;SDS011;766;51.502;9.752;2022-10-04T04:04:15;10.15;;;4.72;;
1545;SDS011;766;51.502;9.752;2022-10-04T04:06:53;15.35;;;5.90;;
1545;SDS011;766;51.502;9.752;2022-10-04T04:09:34;15.18;;;4.88;;
1545;SDS011;766;51.502;9.752;2022-10-04T04:12:10;16.33;;;6.50;;
1545;SDS011;766;51.502;9.752;2022-10-04T04:14:44;12.20;;;5.55;;
1545;SDS011;766;51.502;9.752;2022-10-04T04:17:29;12.77;;;6.00;;
1545;SDS011;766;51.502;9.752;2022-10-04T04:20:18;11.88;;;6.72;;
1545;SDS011;766;51.502;9.752;2022-10-04T04:22:54;11.10;;;6.32;;
1545;SDS011;766;51.502;9.752;2022-10-04T04:25:28;12.13;;;5.63;;
1545;SDS011;766;51.502;9.752;2022-10-04T04:28:04;17.83;;;5.85;;
1545;SDS011;766;51.502;9.752;2022-10-04T04:30:42;10.88;;;5.00;;
1545;SDS011;766;51.502;9.752;2022-10-04T04:33:17;11.73;;;5.18;;
1545;SDS011;766;51.502;9.752;2022-10-04T04:35:53;7.60;;;5.22;;
1545;SDS011;766;51.502;9.752;2022-10-04T04:38:23;13.80;;;4.88;;
1545;SDS011;766;51.502;9.752;2022-10-04T04:40:53;13.95;;;5.43;;
1545;SDS011;766;51.502;9.752;2022-10-04T04:43:23;14.85;;;6.15;;
1545;SDS011;766;51.502;9.752;2022-10-04T04:45:54;16.55;;;5.97;;
1545;SDS011;766;51.502;9.752;2022-10-04T04:48:45;14.05;;;5.72;;
1545;SDS011;766;51.502;9.752;2022-10-04T04:51:17;12.73;;;5.82;;
1545;SDS011;766;51.502;9.752;2022-10-04T04:53:48;15.82;;;5.80;;
1545;SDS011;766;51.502;9.752;2022-10-04T04:56:19;8.52;;;5.13;;
1545;SDS011;766;51.502;9.752;2022-10-04T04:58:50;8.43;;;4.15;;
1545;SDS011;766;51.502;9.752;2022-10-04T05:01:22;12.63;;;4.82;;
1545;SDS011;766;51.502;9.752;2022-10-04T05:04:02;14.40;;;5.53;;
1545;SDS011;766;51.502;9.752;2022-10-04T05:06:33;14.13;;;5.13;;
1545;SDS011;766;51.502;9.752;2022-10-04T05:09:03;12.05;;;5.32;;
1545;SDS011;766;51.502;9.752;2022-10-04T05:11:33;11.35;;;5.07;;
1545;SDS011;766;51.502;9.752;2022-10-04T05:14:05;10.68;;;5.05;;
1545;SDS011;766;51.502;9.752;2022-10-04T05:16:38;11.25;;;4.90;;
1545;SDS011;766;51.502;9.752;2022-10-04T05:19:13;11.98;;;4.28;;
1545;SDS011;766;51.502;9.752;2022-10-04T05:21:47;9.90;;;3.60;;
1545;SDS011;766;51.502;9.752;2022-10-04T05:24:21;12.38;;;4.90;;
1545;SDS011;766;51.502;9.752;2022-10-04T05:26:53;7.40;;;3.60;;
1545;SDS011;766;51.502;9.752;2022-10-04T05:29:24;14.02;;;4.72;;
1545;SDS011;766;51.502;9.752;2022-10-04T05:31:58;14.35;;;3.60;;
1545;SDS011;766;51.502;9.752;2022-10-04T05:34:41;10.48;;;4.10;;
1545;SDS011;766;51.502;9.752;2022-10-04T05:37:24;8.00;;;3.70;;
1545;SDS011;766;51.502;9.752;2022-10-04T05:40:28;9.23;;;3.33;;
1545;SDS011;766;51.502;9.752;2022-10-04T05:43:15;11.07;;;3.50;;
1545;SDS011;766;51.502;9.752;2022-10-04T05:45:48;8.77;;;4.60;;
1545;SDS011;766;51.502;9.752;2022-10-04T05:48:40;8.80;;;3.67;;
1545;SDS011;766;51.502;9.752;2022-10-04T05:51:15;11.95;;;4.07;;
1545;SDS011;766;51.502;9.752;2022-10-04T05:53:46;7.70;;;3.90;;
1545;SDS011;766;51.502;9.752;2022-10-04T05:56:22;7.93;;;4.47;;
1545;SDS011;766;51.502;9.752;2022-10-04T05:59:21;12.45;;;4.43;;
1545;SDS011;766;51.502;9.752;2022-10-04T06:02:10;16.67;;;5.07;;
1545;SDS011;766;51.502;9.752;2022-10-04T06:04:53;12.15;;;4.43;;
1545;SDS011;766;51.502;9.752;2022-10-04T06:07:36;7.80;;;4.30;;
1545;SDS011;766;51.502;9.752;2022-10-04T06:10:14;7.18;;;4.20;;
1545;SDS011;766;51.502;9.752;2022-10-04T06:12:56;7.65;;;3.95;;
1545;SDS011;766;51.502;9.752;2022-10-04T06:15:48;7.78;;;4.07;;
1545;SDS011;766;51.502;9.752;2022-10-04T06:18:32;8.90;;;4.57;;
1545;SDS011;766;51.502;9.752;2022-10-04T06:21:26;9.18;;;4.50;;
1545;SDS011;766;51.502;9.752;2022-10-04T06:24:00;9.18;;;4.00;;
1545;SDS011;766;51.502;9.752;2022-10-04T06:26:34;10.70;;;3.90;;
1545;SDS011;766;51.502;9.752;2022-10-04T06:29:09;7.40;;;3.75;;
1545;SDS011;766;51.502;9.752;2022-10-04T06:38:01;10.02;;;3.60;;
1545;SDS011;766;51.502;9.752;2022-10-04T06:43:59;8.27;;;3.38;;
1545;SDS011;766;51.502;9.752;2022-10-04T06:46:39;8.13;;;3.15;;
1545;SDS011;766;51.502;9.752;2022-10-04T06:52:22;7.05;;;3.08;;
1545;SDS011;766;51.502;9.752;2022-10-04T06:58:12;14.40;;;4.20;;
1545;SDS011;766;51.502;9.752;2022-10-04T07:00:57;8.15;;;4.75;;
1545;SDS011;766;51.502;9.752;2022-10-04T07:03:36;10.02;;;4.50;;
1545;SDS011;766;51.502;9.752;2022-10-04T07:06:19;11.65;;;4.97;;
1545;SDS011;766;51.502;9.752;2022-10-04T07:08:54;10.15;;;4.93;;
1545;SDS011;766;51.502;9.752;2022-10-04T07:11:29;11.60;;;5.25;;
1545;SDS011;766;51.502;9.752;2022-10-04T07:14:14;11.52;;;5.07;;
1545;SDS011;766;51.502;9.752;2022-10-04T07:16:47;9.45;;;4.70;;
1545;SDS011;766;51.502;9.752;2022-10-04T07:22:11;12.38;;;5.00;;
1545;SDS011;766;51.502;9.752;2022-10-04T07:27:33;13.90;;;4.78;;
1545;SDS011;766;51.502;9.752;2022-10-04T07:30:14;13.15;;;5.50;;
1545;SDS011;766;51.502;9.752;2022-10-04T07:32:43;15.15;;;4.53;;
1545;SDS011;766;51.502;9.752;2022-10-04T07:35:15;9.82;;;4.10;;
1545;SDS011;766;51.502;9.752;2022-10-04T07:38:09;9.98;;;4.93;;
1545;SDS011;766;51.502;9.752;2022-10-04T07:40:49;9.73;;;4.80;;
1545;SDS011;766;51.502;9.752;2022-10-04T07:43:29;8.35;;;4.15;;
1545;SDS011;766;51.502;9.752;2022-10-04T07:46:05;9.95;;;4.15;;
1545;SDS011;766;51.502;9.752;2022-10-04T07:48:43;11.73;;;4.20;;
1545;SDS011;766;51.502;9.752;2022-10-04T07:51:21;12.27;;;5.05;;
1545;SDS011;766;51.502;9.752;2022-10-04T07:53:57;11.82;;;5.38;;
1545;SDS011;766;51.502;9.752;2022-10-04T07:56:30;11.73;;;4.88;;
1545;SDS011;766;51.502;9.752;2022-10-04T07:59:21;9.40;;;4.22;;
1545;SDS011;766;51.502;9.752;2022-10-04T08:02:06;8.98;;;4.72;;
1545;SDS011;766;51.502;9.752;2022-10-04T08:04:57;11.20;;;4.35;;
1545;SDS011;766;51.502;9.752;2022-10-04T08:07:37;10.55;;;4.75;;
1545;SDS011;766;51.502;9.752;2022-10-04T08:10:19;8.25;;;3.95;;
1545;SDS011;766;51.502;9.752;2022-10-04T08:12:56;12.93;;;4.30;;
1545;SDS011;766;51.502;9.752;2022-10-04T08:15:34;8.13;;;4.13;;
1545;SDS011;766;51.502;9.752;2022-10-04T08:18:08;9.15;;;4.20;;
1545;SDS011;766;51.502;9.752;2022-10-04T08:20:56;9.32;;;4.35;;
1545;SDS011;766;51.502;9.752;2022-10-04T08:23:34;13.70;;;4.10;;
1545;SDS011;766;51.502;9.752;2022-10-04T08:26:20;12.25;;;4.57;;
1545;SDS011;766;51.502;9.752;2022-10-04T08:29:04;10.85;;;4.05;;
1545;SDS011;766;51.502;9.752;2022-10-04T08:32:08;9.18;;;3.92;;
1545;SDS011;766;51.502;9.752;2022-10-04T08:34:57;7.93;;;4.28;;
1545;SDS011;766;51.502;9.752;2022-10-04T08:37:58;5.57;;;3.83;;
1545;SDS011;766;51.502;9.752;2022-10-04T08:43:52;9.43;;;4.45;;
1545;SDS011;766;51.502;9.752;2022-10-04T08:46:53;9.65;;;4.47;;
1545;SDS011;766;51.502;9.752;2022-10-04T08:53:13;10.68;;;4.00;;
1545;SDS011;766;51.502;9.752;2022-10-04T08:56:08;9.20;;;3.58;;
1545;SDS011;766;51.502;9.752;2022-10-04T08:58:50;11.25;;;3.92;;
1545;SDS011;766;51.502;9.752;2022-10-04T09:04:45;9.70;;;3.22;;
1545;SDS011;766;51.502;9.752;2022-10-04T09:07:47;11.43;;;3.60;;
1545;SDS011;766;51.502;9.752;2022-10-04T09:10:33;8.45;;;3.38;;
1545;SDS011;766;51.502;9.752;2022-10-04T09:13:26;8.55;;;3.42;;
1545;SDS011;766;51.502;9.752;2022-10-04T09:16:07;7.00;;;3.00;;
1545;SDS011;766;51.502;9.752;2022-10-04T09:18:49;9.00;;;2.83;;
1545;SDS011;766;51.502;9.752;2022-10-04T09:21:36;5.75;;;2.88;;
1545;SDS011;766;51.502;9.752;2022-10-04T09:24:29;8.27;;;3.05;;
1545;SDS011;766;51.502;9.752;2022-10-04T09:27:26;8.45;;;3.20;;
1545;SDS011;766;51.502;9.752;2022-10-04T09:30:20;7.40;;;2.92;;
1545;SDS011;766;51.502;9.752;2022-10-04T09:33:01;7.97;;;3.78;;
1545;SDS011;766;51.502;9.752;2022-10-04T09:38:49;7.40;;;2.97;;
1545;SDS011;766;51.502;9.752;2022-10-04T09:42:19;8.07;;;3.13;;
1545;SDS011;766;51.502;9.752;2022-10-04T09:45:05;7.28;;;3.55;;
1545;SDS011;766;51.502;9.752;2022-10-04T09:47:57;6.82;;;3.20;;
1545;SDS011;766;51.502;9.752;2022-10-04T09:50:55;7.93;;;3.03;;
1545;SDS011;766;51.502;9.752;2022-10-04T09:53:49;6.90;;;3.00;;
1545;SDS011;766;51.502;9.752;2022-10-04T09:59:40;8.95;;;3.15;;
1545;SDS011;766;51.502;9.752;2022-10-04T10:02:41;5.05;;;2.95;;
1545;SDS011;766;51.502;9.752;2022-10-04T10:05:28;9.27;;;3.03;;
1545;SDS011;766;51.502;9.752;2022-10-04T10:08:14;6.53;;;2.83;;
1545;SDS011;766;51.502;9.752;2022-10-04T10:10:55;5.45;;;2.83;;
1545;SDS011;766;51.502;9.752;2022-10-04T10:16:50;9.80;;;3.25;;
1545;SDS011;766;51.502;9.752;2022-10-04T10:19:37;7.28;;;2.70;;
1545;SDS011;766;51.502;9.752;2022-10-04T10:22:54;6.63;;;3.03;;
1545;SDS011;766;51.502;9.752;2022-10-04T10:25:51;11.00;;;3.30;;
1545;SDS011;766;51.502;9.752;2022-10-04T10:31:49;8.65;;;3.20;;
1545;SDS011;766;51.502;9.752;2022-10-04T10:37:44;6.78;;;3.13;;
1545;SDS011;766;51.502;9.752;2022-10-04T10:40:40;9.02;;;3.00;;
1545;SDS011;766;51.502;9.752;2022-10-04T10:43:30;7.75;;;2.90;;
1545;SDS011;766;51.502;9.752;2022-10-04T10:46:34;7.50;;;2.80;;
1545;SDS011;766;51.502;9.752;2022-10-04T10:52:17;7.45;;;2.85;;
1545;SDS011;766;51.502;9.752;2022-10-04T10:55:15;7.47;;;3.20;;
1545;SDS011;766;51.502;9.752;2022-10-04T11:04:36;5.72;;;2.90;;
1545;SDS011;766;51.502;9.752;2022-10-04T11:07:18;7.20;;;2.90;;
1545;SDS011;766;51.502;9.752;2022-10-04T11:10:27;7.65;;;2.88;;
1545;SDS011;766;51.502;9.752;2022-10-04T11:13:28;7.90;;;2.70;;
1545;SDS011;766;51.502;9.752;2022-10-04T11:16:27;7.45;;;3.03;;
1545;SDS011;766;51.502;9.752;2022-10-04T11:25:59;7.30;;;3.10;;
1545;SDS011;766;51.502;9.752;2022-10-04T11:29:09;5.40;;;2.45;;
1545;SDS011;766;51.502;9.752;2022-10-04T11:32:02;8.80;;;2.78;;
1545;SDS011;766;51.502;9.752;2022-10-04T11:38:05;4.38;;;2.13;;
1545;SDS011;766;51.502;9.752;2022-10-04T11:40:48;13.98;;;2.53;;
1545;SDS011;766;51.502;9.752;2022-10-04T11:46:51;4.43;;;2.30;;
1545;SDS011;766;51.502;9.752;2022-10-04T11:49:42;7.72;;;2.22;;
1545;SDS011;766;51.502;9.752;2022-10-04T11:55:41;4.78;;;2.33;;
1545;SDS011;766;51.502;9.752;2022-10-04T11:58:31;4.30;;;2.28;;
1545;SDS011;766;51.502;9.752;2022-10-04T12:01:16;6.40;;;2.92;;
1545;SDS011;766;51.502;9.752;2022-10-04T12:04:17;4.50;;;2.10;;
1545;SDS011;766;51.502;9.752;2022-10-04T12:07:02;7.38;;;2.78;;
1545;SDS011;766;51.502;9.752;2022-10-04T12:09:52;7.95;;;2.17;;
1545;SDS011;766;51.502;9.752;2022-10-04T12:12:35;5.72;;;2.28;;
1545;SDS011;766;51.502;9.752;2022-10-04T12:15:22;4.22;;;2.10;;
1545;SDS011;766;51.502;9.752;2022-10-04T12:21:27;7.75;;;2.55;;
1545;SDS011;766;51.502;9.752;2022-10-04T12:24:07;5.75;;;2.55;;
1545;SDS011;766;51.502;9.752;2022-10-04T12:26:52;5.68;;;2.38;;
1545;SDS011;766;51.502;9.752;2022-10-04T12:29:51;4.97;;;2.35;;
1545;SDS011;766;51.502;9.752;2022-10-04T12:32:38;4.80;;;2.15;;
1545;SDS011;766;51.502;9.752;2022-10-04T12:35:25;7.53;;;2.35;;
1545;SDS011;766;51.502;9.752;2022-10-04T12:38:10;8.27;;;2.08;;
1545;SDS011;766;51.502;9.752;2022-10-04T12:40:51;5.38;;;2.40;;
1545;SDS011;766;51.502;9.752;2022-10-04T12:43:25;5.20;;;2.08;;
1545;SDS011;766;51.502;9.752;2022-10-04T12:46:09;3.72;;;2.30;;
1545;SDS011;766;51.502;9.752;2022-10-04T12:48:47;6.28;;;2.40;;
1545;SDS011;766;51.502;9.752;2022-10-04T12:51:27;4.60;;;2.30;;
1545;SDS011;766;51.502;9.752;2022-10-04T12:54:09;7.43;;;2.72;;
1545;SDS011;766;51.502;9.752;2022-10-04T12:56:53;3.67;;;2.22;;
1545;SDS011;766;51.502;9.752;2022-10-04T12:59:37;4.90;;;2.25;;
1545;SDS011;766;51.502;9.752;2022-10-04T13:02:19;5.13;;;2.40;;
1545;SDS011;766;51.502;9.752;2022-10-04T13:05:03;8.80;;;2.67;;
1545;SDS011;766;51.502;9.752;2022-10-04T13:07:51;6.35;;;2.47;;
1545;SDS011;766;51.502;9.752;2022-10-04T13:10:35;4.63;;;2.10;;
1545;SDS011;766;51.502;9.752;2022-10-04T13:13:18;7.75;;;2.72;;
1545;SDS011;766;51.502;9.752;2022-10-04T13:16:11;4.35;;;2.33;;
1545;SDS011;766;51.502;9.752;2022-10-04T13:19:10;4.20;;;2.33;;
1545;SDS011;766;51.502;9.752;2022-10-04T13:21:58;6.38;;;2.00;;
1545;SDS011;766;51.502;9.752;2022-10-04T13:25:16;3.17;;;2.30;;
1545;SDS011;766;51.502;9.752;2022-10-04T13:27:53;6.43;;;2.30;;
1545;SDS011;766;51.502;9.752;2022-10-04T13:30:28;4.70;;;1.95;;
1545;SDS011;766;51.502;9.752;2022-10-04T13:33:05;4.28;;;2.20;;
1545;SDS011;766;51.502;9.752;2022-10-04T13:35:50;3.28;;;1.98;;
1545;SDS011;766;51.502;9.752;2022-10-04T13:38:37;3.47;;;1.90;;
1545;SDS011;766;51.502;9.752;2022-10-04T13:41:23;5.38;;;1.90;;
1545;SDS011;766;51.502;9.752;2022-10-04T13:44:03;6.57;;;2.47;;
1545;SDS011;766;51.502;9.752;2022-10-04T13:46:52;3.67;;;2.08;;
1545;SDS011;766;51.502;9.752;2022-10-04T13:49:36;4.65;;;1.88;;
1545;SDS011;766;51.502;9.752;2022-10-04T13:52:18;5.28;;;2.10;;
1545;SDS011;766;51.502;9.752;2022-10-04T13:55:18;4.53;;;2.00;;
1545;SDS011;766;51.502;9.752;2022-10-04T13:58:13;6.50;;;2.45;;
1545;SDS011;766;51.502;9.752;2022-10-04T14:01:07;6.53;;;2.17;;
1545;SDS011;766;51.502;9.752;2022-10-04T14:03:55;6.28;;;2.25;;
1545;SDS011;766;51.502;9.752;2022-10-04T14:06:52;4.00;;;1.88;;
1545;SDS011;766;51.502;9.752;2022-10-04T14:09:45;3.80;;;2.03;;
1545;SDS011;766;51.502;9.752;2022-10-04T14:18:53;3.95;;;1.80;;
1545;SDS011;766;51.502;9.752;2022-10-04T14:22:08;4.95;;;2.08;;
1545;SDS011;766;51.502;9.752;2022-10-04T14:27:49;5.28;;;2.10;;
1545;SDS011;766;51.502;9.752;2022-10-04T14:30:48;5.22;;;2.40;;
1545;SDS011;766;51.502;9.752;2022-10-04T14:33:34;4.75;;;2.08;;
1545;SDS011;766;51.502;9.752;2022-10-04T14:36:27;9.00;;;2.20;;
1545;SDS011;766;51.502;9.752;2022-10-04T14:39:17;5.72;;;2.30;;
1545;SDS011;766;51.502;9.752;2022-10-04T14:42:15;6.80;;;2.10;;
1545;SDS011;766;51.502;9.752;2022-10-04T14:45:19;3.28;;;1.75;;
1545;SDS011;766;51.502;9.752;2022-10-04T14:48:17;4.20;;;1.98;;
1545;SDS011;766;51.502;9.752;2022-10-04T14:53:55;4.93;;;1.67;;
1545;SDS011;766;51.502;9.752;2022-10-04T14:59:36;6.30;;;1.70;;
1545;SDS011;766;51.502;9.752;2022-10-04T15:02:21;3.95;;;1.45;;
1545;SDS011;766;51.502;9.752;2022-10-04T15:05:24;4.05;;;1.52;;
1545;SDS011;766;51.502;9.752;2022-10-04T15:08:10;2.88;;;1.40;;
1545;SDS011;766;51.502;9.752;2022-10-04T15:10:56;4.93;;;2.03;;
1545;SDS011;766;51.502;9.752;2022-10-04T15:13:29;4.72;;;1.50;;
1545;SDS011;766;51.502;9.752;2022-10-04T15:16:08;5.75;;;1.45;;
1545;SDS011;766;51.502;9.752;2022-10-04T15:18:46;3.72;;;1.40;;
1545;SDS011;766;51.502;9.752;2022-10-04T15:21:26;3.60;;;1.20;;
1545;SDS011;766;51.502;9.752;2022-10-04T15:24:24;2.83;;;1.48;;
1545;SDS011;766;51.502;9.752;2022-10-04T15:30:07;3.42;;;1.30;;
1545;SDS011;766;51.502;9.752;2022-10-04T15:32:42;3.67;;;1.30;;
1545;SDS011;766;51.502;9.752;2022-10-04T15:35:19;7.93;;;1.58;;
1545;SDS011;766;51.502;9.752;2022-10-04T15:37:57;4.00;;;1.23;;
1545;SDS011;766;51.502;9.752;2022-10-04T15:40:34;4.72;;;1.30;;
1545;SDS011;766;51.502;9.752;2022-10-04T15:43:17;2.00;;;1.30;;
1545;SDS011;766;51.502;9.752;2022-10-04T15:46:21;4.50;;;1.30;;
1545;SDS011;766;51.502;9.752;2022-10-04T15:52:00;5.07;;;1.52;;
1545;SDS011;766;51.502;9.752;2022-10-04T15:57:48;2.58;;;1.10;;
1545;SDS011;766;51.502;9.752;2022-10-04T16:00:39;6.57;;;1.42;;
1545;SDS011;766;51.502;9.752;2022-10-04T16:03:18;5.38;;;1.35;;
1545;SDS011;766;51.502;9.752;2022-10-04T16:05:59;2.90;;;1.50;;
1545;SDS011;766;51.502;9.752;2022-10-04T16:11:31;2.80;;;1.30;;
1545;SDS011;766;51.502;9.752;2022-10-04T16:17:42;3.53;;;1.42;;
1545;SDS011;766;51.502;9.752;2022-10-04T16:20:46;3.80;;;1.40;;
1545;SDS011;766;51.502;9.752;2022-10-04T16:23:28;2.83;;;1.23;;
1545;SDS011;766;51.502;9.752;2022-10-04T16:25:58;3.20;;;1.10;;
1545;SDS011;766;51.502;9.752;2022-10-04T16:28:41;4.22;;;1.63;;
1545;SDS011;766;51.502;9.752;2022-10-04T16:31:38;5.72;;;1.50;;
1545;SDS011;766;51.502;9.752;2022-10-04T16:37:17;4.05;;;1.58;;
1545;SDS011;766;51.502;9.752;2022-10-04T16:40:00;2.45;;;1.20;;
1545;SDS011;766;51.502;9.752;2022-10-04T16:42:49;3.45;;;1.40;;
1545;SDS011;766;51.502;9.752;2022-10-04T16:45:35;2.58;;;1.20;;
1545;SDS011;766;51.502;9.752;2022-10-04T16:48:12;3.38;;;1.20;;
1545;SDS011;766;51.502;9.752;2022-10-04T16:54:00;2.65;;;1.13;;
1545;SDS011;766;51.502;9.752;2022-10-04T16:59:44;4.00;;;1.42;;
1545;SDS011;766;51.502;9.752;2022-10-04T17:02:36;3.05;;;1.55;;
1545;SDS011;766;51.502;9.752;2022-10-04T17:11:30;10.48;;;1.75;;
1545;SDS011;766;51.502;9.752;2022-10-04T17:14:30;4.32;;;1.67;;
1545;SDS011;766;51.502;9.752;2022-10-04T17:17:16;2.83;;;1.42;;
1545;SDS011;766;51.502;9.752;2022-10-04T17:19:51;3.22;;;1.60;;
1545;SDS011;766;51.502;9.752;2022-10-04T17:22:29;6.78;;;1.30;;
1545;SDS011;766;51.502;9.752;2022-10-04T17:25:17;7.38;;;1.75;;
1545;SDS011;766;51.502;9.752;2022-10-04T17:27:55;3.03;;;1.60;;
1545;SDS011;766;51.502;9.752;2022-10-04T17:30:39;3.90;;;1.60;;
1545;SDS011;766;51.502;9.752;2022-10-04T17:33:18;1.95;;;1.35;;
1545;SDS011;766;51.502;9.752;2022-10-04T17:36:02;3.90;;;1.50;;
1545;SDS011;766;51.502;9.752;2022-10-04T17:38:47;9.07;;;2.47;;
1545;SDS011;766;51.502;9.752;2022-10-04T17:41:26;6.50;;;1.80;;
1545;SDS011;766;51.502;9.752;2022-10-04T17:44:17;4.60;;;1.30;;
1545;SDS011;766;51.502;9.752;2022-10-04T17:46:59;5.07;;;2.05;;
1545;SDS011;766;51.502;9.752;2022-10-04T17:49:42;6.78;;;1.73;;
1545;SDS011;766;51.502;9.752;2022-10-04T17:52:42;6.95;;;2.00;;
1545;SDS011;766;51.502;9.752;2022-10-04T17:55:33;4.32;;;1.50;;
1545;SDS011;766;51.502;9.752;2022-10-04T17:58:14;2.33;;;1.63;;
1545;SDS011;766;51.502;9.752;2022-10-04T18:00:48;5.00;;;1.77;;
1545;SDS011;766;51.502;9.752;2022-10-04T18:03:30;4.15;;;1.67;;
1545;SDS011;766;51.502;9.752;2022-10-04T18:06:10;4.93;;;1.80;;
1545;SDS011;766;51.502;9.752;2022-10-04T18:08:59;2.67;;;1.70;;
1545;SDS011;766;51.502;9.752;2022-10-04T18:11:33;3.25;;;1.40;;
1545;SDS011;766;51.502;9.752;2022-10-04T18:14:11;6.03;;;2.00;;
1545;SDS011;766;51.502;9.752;2022-10-04T18:16:52;2.13;;;1.52;;
1545;SDS011;766;51.502;9.752;2022-10-04T18:19:32;4.68;;;1.58;;
1545;SDS011;766;51.502;9.752;2022-10-04T18:22:10;3.60;;;2.10;;
1545;SDS011;766;51.502;9.752;2022-10-04T18:24:41;6.03;;;1.85;;
1545;SDS011;766;51.502;9.752;2022-10-04T18:27:17;3.92;;;1.58;;
1545;SDS011;766;51.502;9.752;2022-10-04T18:30:06;3.83;;;2.10;;
1545;SDS011;766;51.502;9.752;2022-10-04T18:32:42;10.55;;;1.73;;
1545;SDS011;766;51.502;9.752;2022-10-04T18:35:22;4.28;;;1.63;;
1545;SDS011;766;51.502;9.752;2022-10-04T18:37:54;5.53;;;1.80;;
1545;SDS011;766;51.502;9.752;2022-10-04T18:40:41;3.20;;;1.70;;
1545;SDS011;766;51.502;9.752;2022-10-04T18:43:23;2.53;;;1.55;;
1545;SDS011;766;51.502;9.752;2022-10-04T18:45:58;3.67;;;1.50;;
1545;SDS011;766;51.502;9.752;2022-10-04T18:48:49;6.72;;;2.08;;
1545;SDS011;766;51.502;9.752;2022-10-04T18:51:27;2.92;;;1.85;;
1545;SDS011;766;51.502;9.752;2022-10-04T18:54:08;5.43;;;1.88;;
1545;SDS011;766;51.502;9.752;2022-10-04T18:56:48;3.67;;;1.63;;
1545;SDS011;766;51.502;9.752;2022-10-04T18:59:28;3.63;;;1.95;;
1545;SDS011;766;51.502;9.752;2022-10-04T19:02:24;10.30;;;2.20;;
1545;SDS011;766;51.502;9.752;2022-10-04T19:05:00;4.72;;;1.98;;
1545;SDS011;766;51.502;9.752;2022-10-04T19:07:42;4.28;;;2.30;;
1545;SDS011;766;51.502;9.752;2022-10-04T19:10:24;3.63;;;2.28;;